Buechel, Kentucky
Current Conditions -  °F | °C
As of 2:53 AM on Thursday 18 Dec 2014 (Local Time) from KLOU Reporting Station
Overcast Overcast  
Wind Chill: 24°   Ceiling: 1800
Heat Index: 29°   Visibility: 10mi
Dew Point: 21°   Wind: 5mph
Humidity: 72%   Direction: 20°NNE
Pressure: 30.3"   Gusts: NA
Location:  38.1869°N, 85.6523°W
Report Text: KLOU 180753Z AUTO 02004KT 10SM OVC018 M02/M06 A3030 RMK AO2 SLP264 T10171061
Loading
Personal Weather Stations






























Interactive Weather Map New forecast layout! Learn more

10-Day Weather Forecast

Advertisements
Track Severe Weather on mobile